Time;durP1;ratioP1;P1;durP2;ratioP2;P2;SDS_P1;SDS_P2;PMS_P1;PMS_P2;Temp;Humidity;BMP_temperature;BMP_pressure;BME280_temperature;BME280_humidity;BME280_pressure;Samples;Min_cycle;Max_cycle;Signal;HPM_P1;HPM_P2
2023/09/27 00:00:36;;;;;;;18.88;7.55;;;;;;;12.31;82.94;100962.75;5077243;28;20051;-35
2023/09/27 00:03:04;;;;;;;17.13;8.43;;;;;;;11.98;83.10;100905.25;5069778;28;20045;-36
2023/09/27 00:05:29;;;;;;;15.02;7.43;;;;;;;12.30;83.50;100968.00;5073727;28;20042;-37
2023/09/27 00:07:56;;;;;;;17.08;7.45;;;;;;;12.28;83.43;100967.19;5049694;28;20080;-35
2023/09/27 00:10:22;;;;;;;13.02;7.13;;;;;;;12.26;83.56;100961.16;5072842;28;20043;-36
2023/09/27 00:12:48;;;;;;;12.40;7.00;;;;;;;12.22;83.33;100962.97;5077798;28;20064;-36
2023/09/27 00:15:15;;;;;;;13.20;7.22;;;;;;;12.22;83.58;100955.13;5071331;28;20504;-36
2023/09/27 00:17:42;;;;;;;12.38;7.53;;;;;;;12.22;83.38;100954.28;5069599;28;20044;-36
2023/09/27 00:20:12;;;;;;;15.48;7.90;;;;;;;12.01;83.73;100919.09;5078699;28;20051;-37
2023/09/27 00:22:38;;;;;;;18.83;7.78;;;;;;;12.13;84.02;100939.69;5073582;28;20036;-36
2023/09/27 00:25:05;;;;;;;18.08;8.35;;;;;;;12.11;84.30;100953.63;5075505;28;20644;-36
2023/09/27 00:27:31;;;;;;;14.27;8.27;;;;;;;12.09;84.07;100958.88;5064061;28;20065;-34
2023/09/27 00:29:57;;;;;;;21.70;8.93;;;;;;;12.06;84.33;100956.34;5078987;28;20135;-35
2023/09/27 00:32:23;;;;;;;20.45;9.23;;;;;;;11.87;84.47;100924.59;5079540;28;20054;-36
2023/09/27 00:34:49;;;;;;;17.10;9.20;;;;;;;12.04;84.66;100949.44;5070197;28;20188;-36
2023/09/27 00:37:15;;;;;;;19.35;9.07;;;;;;;12.02;84.71;100954.69;5069951;28;20033;-36
2023/09/27 00:39:41;;;;;;;22.98;9.57;;;;;;;11.98;85.02;100946.97;5082308;28;20040;-36
2023/09/27 00:42:07;;;;;;;21.98;10.10;;;;;;;11.98;85.13;100955.66;5081522;28;20086;-35
2023/09/27 00:44:34;;;;;;;24.88;10.02;;;;;;;11.98;85.22;100955.66;5072987;28;20044;-36
2023/09/27 00:47:02;;;;;;;22.63;10.00;;;;;;;11.95;85.65;100950.47;5071495;28;20049;-35
2023/09/27 00:49:28;;;;;;;21.75;9.55;;;;;;;11.74;85.47;100925.69;5056924;28;20036;-35
2023/09/27 00:51:53;;;;;;;17.80;8.88;;;;;;;11.86;85.97;100943.72;5081747;28;20047;-36
2023/09/27 00:54:20;;;;;;;23.83;9.15;;;;;;;11.85;85.94;100954.16;5080335;28;20049;-36
2023/09/27 00:56:47;;;;;;;17.88;9.00;;;;;;;11.83;85.87;100958.53;5068166;28;20048;-36
2023/09/27 00:59:17;;;;;;;18.52;8.15;;;;;;;11.82;85.81;100949.00;5072783;28;20063;-36
2023/09/27 01:01:44;;;;;;;16.98;8.23;;;;;;;11.82;85.99;100960.31;5065156;28;20620;-36
2023/09/27 01:04:13;;;;;;;20.25;8.85;;;;;;;11.82;86.03;100956.84;5091119;28;20127;-36
2023/09/27 01:06:41;;;;;;;17.73;8.30;;;;;;;11.81;86.30;100961.19;5071196;28;20400;-36
2023/09/27 01:09:07;;;;;;;18.52;9.40;;;;;;;11.77;86.35;100956.94;5070633;28;20044;-35
2023/09/27 01:11:33;;;;;;;20.33;8.77;;;;;;;11.79;85.75;100968.16;5078202;28;20058;-36
2023/09/27 01:13:59;;;;;;;16.77;8.13;;;;;;;11.78;86.28;100961.22;5070466;28;20047;-36
2023/09/27 01:16:26;;;;;;;19.63;9.13;;;;;;;11.77;85.94;100962.13;5082836;28;20032;-35
2023/09/27 01:18:52;;;;;;;18.25;8.55;;;;;;;11.74;86.27;100954.34;5073486;28;20075;-36
2023/09/27 01:21:19;;;;;;;18.75;8.30;;;;;;;11.73;86.63;100963.06;5074546;28;20067;-35
2023/09/27 01:23:49;;;;;;;20.83;9.32;;;;;;;11.59;86.55;100938.97;5067081;28;20051;-37
2023/09/27 01:26:16;;;;;;;17.98;9.57;;;;;;;11.50;86.60;100925.28;5080872;28;20143;-36
2023/09/27 01:28:45;;;;;;;22.95;9.07;;;;;;;11.66;87.24;100953.63;5051630;28;20039;-35
2023/09/27 01:31:11;;;;;;;23.33;10.10;;;;;;;11.67;87.25;100959.69;5068099;28;20040;-36
2023/09/27 01:33:37;;;;;;;23.77;10.20;;;;;;;11.51;87.19;100925.25;5074799;28;20031;-35
2023/09/27 01:36:04;;;;;;;23.45;9.88;;;;;;;11.72;87.33;100963.91;5079304;28;20043;-35
2023/09/27 01:38:30;;;;;;;21.10;9.35;;;;;;;11.76;87.07;100951.72;5072969;28;20070;-36
2023/09/27 01:40:57;;;;;;;20.13;8.98;;;;;;;11.76;86.94;100957.81;5081688;28;20155;-36
2023/09/27 01:43:23;;;;;;;21.75;9.85;;;;;;;11.75;86.59;100952.63;5081585;28;20040;-35
2023/09/27 01:45:49;;;;;;;28.85;9.93;;;;;;;11.74;87.15;100958.72;5074375;28;20113;-36
2023/09/27 01:48:14;;;;;;;23.10;9.88;;;;;;;11.71;86.85;100956.13;5059373;28;20068;-36
2023/09/27 01:50:41;;;;;;;24.23;9.57;;;;;;;11.59;86.65;100938.97;5064058;28;20033;-36
2023/09/27 01:53:07;;;;;;;26.35;10.25;;;;;;;11.70;86.49;100957.03;5073423;28;20047;-36
2023/09/27 01:55:33;;;;;;;25.65;11.43;;;;;;;11.70;86.69;100957.88;5077082;28;20051;-35
2023/09/27 01:58:00;;;;;;;23.08;9.85;;;;;;;11.50;86.82;100922.66;5063257;28;20091;-35
2023/09/27 02:00:26;;;;;;;24.00;10.38;;;;;;;11.67;86.88;100946.66;5090964;28;20045;-36
2023/09/27 02:02:58;;;;;;;22.77;9.90;;;;;;;11.52;86.59;100921.75;5053837;28;20130;-35
2023/09/27 02:05:28;;;;;;;23.60;10.43;;;;;;;11.66;86.85;100948.41;5074751;28;20062;-35
2023/09/27 02:07:54;;;;;;;22.50;10.63;;;;;;;11.47;86.87;100918.34;5057007;28;20042;-37
2023/09/27 02:10:21;;;;;;;25.73;10.80;;;;;;;11.61;87.34;100958.06;5093716;28;20086;-36
2023/09/27 02:12:48;;;;;;;22.73;10.90;;;;;;;11.57;87.37;100940.75;5072610;28;20047;-36
2023/09/27 02:15:15;;;;;;;27.55;11.30;;;;;;;11.57;87.41;100950.31;5079001;28;20044;-36
2023/09/27 02:17:43;;;;;;;18.02;9.38;;;;;;;11.55;87.43;100949.50;5071415;28;20051;-35
2023/09/27 02:20:12;;;;;;;17.30;8.80;;;;;;;11.49;87.26;100953.06;5076405;28;20068;-36
2023/09/27 02:22:42;;;;;;;25.13;10.20;;;;;;;11.44;87.66;100953.16;5075376;28;20048;-37
2023/09/27 02:25:11;;;;;;;24.52;10.80;;;;;;;11.41;87.49;100945.38;5065220;28;20045;-36
2023/09/27 02:27:38;;;;;;;27.75;11.10;;;;;;;11.37;87.98;100942.84;5073628;28;20068;-35
2023/09/27 02:30:07;;;;;;;21.10;10.65;;;;;;;11.36;87.68;100951.53;5048439;28;20509;-36
2023/09/27 02:32:34;;;;;;;27.48;10.98;;;;;;;11.32;87.54;100947.28;5083843;28;20437;-36
2023/09/27 02:35:00;;;;;;;27.50;12.10;;;;;;;11.30;87.72;100946.47;5065835;28;20044;-37
2023/09/27 02:37:27;;;;;;;20.98;11.15;;;;;;;11.11;88.11;100912.06;5093796;28;20178;-35
2023/09/27 02:39:53;;;;;;;21.13;11.55;;;;;;;11.26;88.33;100937.81;5048561;28;20132;-36
2023/09/27 02:42:20;;;;;;;23.15;11.70;;;;;;;11.22;88.25;100941.38;5074240;28;20037;-36
2023/09/27 02:44:47;;;;;;;25.90;12.15;;;;;;;10.86;88.66;100880.38;5076632;28;20416;-36
2023/09/27 02:47:13;;;;;;;28.38;12.15;;;;;;;11.15;88.47;100939.75;5072153;28;20511;-36
2023/09/27 02:49:39;;;;;;;28.38;11.68;;;;;;;11.24;88.31;100943.97;5072855;28;20051;-36
2023/09/27 02:52:06;;;;;;;24.40;11.38;;;;;;;11.28;88.45;100937.81;5070298;28;20066;-36
2023/09/27 02:54:33;;;;;;;24.75;11.68;;;;;;;11.17;88.21;100914.56;5072318;28;20055;-35
2023/09/27 02:56:59;;;;;;;28.05;10.32;;;;;;;11.41;88.24;100942.75;5059773;28;20089;-35
2023/09/27 02:59:25;;;;;;;23.45;10.70;;;;;;;11.45;87.91;100949.66;5069803;28;20053;-36
2023/09/27 03:01:51;;;;;;;24.52;10.93;;;;;;;11.51;87.53;100945.22;5067100;28;20401;-35
2023/09/27 03:04:17;;;;;;;31.25;12.73;;;;;;;11.54;87.22;100943.41;5068812;28;20588;-36
2023/09/27 03:06:43;;;;;;;41.35;15.60;;;;;;;11.58;87.06;100939.00;5070830;28;20036;-35
2023/09/27 03:09:10;;;;;;;37.03;12.85;;;;;;;11.60;87.03;100942.44;5073695;28;20041;-36
2023/09/27 03:11:36;;;;;;;32.75;12.63;;;;;;;11.50;87.25;100928.75;5073407;28;20052;-37
2023/09/27 03:14:02;;;;;;;27.70;12.73;;;;;;;11.63;87.19;100944.97;5069205;28;20217;-37
2023/09/27 03:16:29;;;;;;;27.05;11.82;;;;;;;11.65;87.48;100945.81;5072996;28;20047;-36
2023/09/27 03:18:55;;;;;;;30.15;12.57;;;;;;;11.67;87.57;100944.91;5069274;28;20041;-35
2023/09/27 03:21:21;;;;;;;23.02;10.27;;;;;;;11.74;86.49;100936.13;5067445;28;20043;-36
2023/09/27 03:23:48;;;;;;;22.52;9.77;;;;;;;11.81;86.66;100942.06;5064175;28;20040;-36
2023/09/27 03:26:14;;;;;;;17.05;9.05;;;;;;;11.92;86.46;100939.25;5064092;28;20092;-35
2023/09/27 03:28:41;;;;;;;17.15;8.60;;;;;;;11.84;86.06;100921.16;5064424;28;20044;-37
2023/09/27 03:31:07;;;;;;;17.25;7.60;;;;;;;12.09;85.21;100940.63;5062144;28;20052;-36
2023/09/27 03:33:33;;;;;;;16.48;7.95;;;;;;;12.08;84.79;100944.16;5062720;28;20040;-36
2023/09/27 03:36:03;;;;;;;14.07;7.28;;;;;;;12.07;84.65;100939.81;5062711;28;20094;-36
2023/09/27 03:38:29;;;;;;;14.75;8.02;;;;;;;11.86;84.66;100912.44;5079422;28;20068;-36
2023/09/27 03:40:55;;;;;;;14.85;7.97;;;;;;;12.02;84.34;100940.78;5051011;28;20071;-36
2023/09/27 03:43:21;;;;;;;17.42;8.15;;;;;;;11.98;84.45;100942.63;5073935;28;20056;-36
2023/09/27 03:45:47;;;;;;;15.35;7.95;;;;;;;11.91;84.31;100937.53;5076644;28;20048;-37
2023/09/27 03:48:13;;;;;;;13.25;8.00;;;;;;;11.94;84.08;100940.06;5063728;28;20056;-36
2023/09/27 03:50:39;;;;;;;14.00;8.13;;;;;;;11.95;84.13;100944.41;5064161;28;20511;-35
2023/09/27 03:53:04;;;;;;;15.07;8.02;;;;;;;11.98;84.20;100941.75;5076286;28;20086;-35
2023/09/27 03:55:30;;;;;;;15.38;8.23;;;;;;;11.97;84.00;100930.47;5074377;28;20055;-37
2023/09/27 03:57:56;;;;;;;16.23;8.80;;;;;;;11.99;83.92;100930.41;5074437;28;20086;-37
2023/09/27 04:00:22;;;;;;;17.92;10.30;;;;;;;12.02;83.75;100939.06;5064046;28;20043;-36
2023/09/27 04:02:48;;;;;;;17.17;10.15;;;;;;;12.09;83.59;100935.41;5078599;28;20040;-36
2023/09/27 04:05:15;;;;;;;20.15;9.48;;;;;;;12.13;82.92;100936.22;5065950;28;20048;-36
2023/09/27 04:07:41;;;;;;;16.05;10.05;;;;;;;12.18;83.20;100940.47;5073669;28;20056;-37
2023/09/27 04:10:08;;;;;;;16.83;9.75;;;;;;;12.26;82.81;100937.66;5073136;28;20039;-38
2023/09/27 04:12:37;;;;;;;19.73;10.10;;;;;;;12.29;82.01;100935.03;5073108;28;20115;-36
2023/09/27 04:15:09;;;;;;;19.48;10.00;;;;;;;12.25;81.50;100930.72;5063853;28;20086;-36
2023/09/27 04:17:37;;;;;;;18.85;10.18;;;;;;;12.18;81.77;100937.84;5070110;28;20052;-36
2023/09/27 04:20:11;;;;;;;20.08;10.27;;;;;;;12.13;81.69;100938.84;5067790;28;20048;-36
2023/09/27 04:22:37;;;;;;;16.80;10.52;;;;;;;12.10;81.37;100938.88;5078371;28;20138;-37
2023/09/27 04:25:03;;;;;;;24.75;12.00;;;;;;;12.10;81.72;100944.94;5062204;28;21687;-36
2023/09/27 04:27:29;;;;;;;18.35;10.23;;;;;;;12.09;81.56;100942.41;5068299;28;20048;-37
2023/09/27 04:29:55;;;;;;;19.65;10.55;;;;;;;12.08;81.91;100936.31;5066727;28;20066;-37
2023/09/27 04:32:23;;;;;;;18.73;9.95;;;;;;;12.12;81.51;100942.31;5071716;28;20040;-37
2023/09/27 04:34:49;;;;;;;16.90;10.55;;;;;;;12.05;81.71;100943.31;5069306;28;20044;-37
2023/09/27 04:37:14;;;;;;;21.00;11.07;;;;;;;11.98;82.01;100952.19;5085321;28;20040;-37
2023/09/27 04:39:40;;;;;;;15.90;10.90;;;;;;;11.93;82.33;100947.06;5051302;28;20044;-36
2023/09/27 04:42:06;;;;;;;19.80;11.32;;;;;;;12.00;82.27;100947.78;5071679;28;20548;-36
2023/09/27 04:44:32;;;;;;;22.20;11.07;;;;;;;12.07;82.09;100950.25;5064531;28;20043;-37
2023/09/27 04:46:57;;;;;;;21.70;11.65;;;;;;;12.16;82.00;100946.56;5055749;28;20051;-37
2023/09/27 04:49:23;;;;;;;21.38;10.82;;;;;;;12.21;81.60;100948.19;5070274;28;20113;-36
2023/09/27 04:51:49;;;;;;;17.48;10.43;;;;;;;12.23;81.68;100950.78;5073055;28;20602;-36
2023/09/27 04:54:15;;;;;;;21.27;10.48;;;;;;;12.24;81.53;100947.28;5060292;28;20041;-36
2023/09/27 04:56:40;;;;;;;18.52;10.88;;;;;;;12.37;81.15;100947.88;5070701;28;20044;-37
2023/09/27 04:59:06;;;;;;;19.40;10.82;;;;;;;12.43;80.65;100953.81;5069199;28;20128;-37
2023/09/27 05:01:32;;;;;;;23.80;12.50;;;;;;;12.44;80.44;100945.13;5072456;28;20143;-37
2023/09/27 05:03:58;;;;;;;25.60;12.55;;;;;;;12.46;80.37;100947.66;5057289;28;20040;-37
2023/09/27 05:06:24;;;;;;;27.85;14.32;;;;;;;12.57;80.15;100938.72;5063931;28;20056;-37
2023/09/27 05:08:50;;;;;;;32.72;14.00;;;;;;;12.70;79.59;100947.16;5070210;28;20057;-37
2023/09/27 05:11:18;;;;;;;29.50;13.68;;;;;;;12.80;79.04;100950.41;5079945;28;20530;-37
2023/09/27 05:13:48;;;;;;;21.73;12.63;;;;;;;12.86;78.65;100948.50;5075882;28;20055;-38
2023/09/27 05:16:14;;;;;;;25.48;12.93;;;;;;;12.96;78.43;100942.16;5053381;28;20034;-37
2023/09/27 05:18:41;;;;;;;26.13;12.70;;;;;;;13.06;77.99;100950.63;5079021;28;20199;-37
2023/09/27 05:21:07;;;;;;;30.73;14.13;;;;;;;13.10;77.52;100944.44;5064855;28;20509;-37
2023/09/27 05:23:34;;;;;;;23.42;13.05;;;;;;;13.15;77.27;100950.44;5059313;28;20491;-35
2023/09/27 05:26:00;;;;;;;20.63;12.43;;;;;;;13.34;76.67;100956.94;5067425;28;20059;-36
2023/09/27 05:28:27;;;;;;;27.45;13.60;;;;;;;13.56;76.23;100947.63;5076917;28;20039;-37
2023/09/27 05:30:53;;;;;;;22.90;12.38;;;;;;;13.85;75.62;100946.00;5063992;28;20040;-36
2023/09/27 05:33:19;;;;;;;23.85;11.63;;;;;;;14.21;74.58;100950.19;5053946;28;20037;-36
2023/09/27 05:35:45;;;;;;;22.23;12.52;;;;;;;14.64;73.08;100955.03;5084959;28;20040;-37
2023/09/27 05:38:11;;;;;;;21.38;11.90;;;;;;;15.15;71.42;100936.78;5049431;28;20067;-36
2023/09/27 05:40:37;;;;;;;19.45;11.40;;;;;;;15.95;69.23;100966.41;5069960;28;21087;-36
2023/09/27 05:43:03;;;;;;;22.35;11.18;;;;;;;16.62;66.79;100967.41;5078677;28;20059;-37
2023/09/27 05:45:29;;;;;;;26.58;10.18;;;;;;;17.20;64.20;100963.31;5066190;28;20040;-36
2023/09/27 05:47:54;;;;;;;17.38;9.38;;;;;;;17.89;62.66;100958.63;5059473;28;20039;-37
2023/09/27 05:50:20;;;;;;;15.38;9.45;;;;;;;18.53;61.13;100960.94;5066295;28;20071;-37
2023/09/27 05:52:46;;;;;;;18.30;8.63;;;;;;;19.24;58.59;100954.88;5072108;28;20066;-40
2023/09/27 05:55:13;;;;;;;11.15;7.40;;;;;;;20.08;56.57;100958.47;5059411;28;20048;-37
2023/09/27 05:57:39;;;;;;;13.35;7.68;;;;;;;20.52;53.80;100951.66;5060107;28;20530;-40
2023/09/27 06:00:15;;;;;;;10.95;7.93;;;;;;;20.66;51.88;100949.13;5073792;28;20067;-37
2023/09/27 06:02:41;;;;;;;13.65;8.38;;;;;;;21.24;50.95;100939.69;5071624;28;20431;-38
2023/09/27 06:05:07;;;;;;;16.55;8.75;;;;;;;22.17;49.23;100958.75;5082094;28;20044;-38
2023/09/27 06:07:35;;;;;;;14.90;7.68;;;;;;;22.85;47.46;100959.69;5079413;28;20746;-38
2023/09/27 06:10:01;;;;;;;13.23;7.78;;;;;;;23.34;46.07;100938.75;5074869;28;20051;-39
2023/09/27 06:12:27;;;;;;;9.15;6.82;;;;;;;24.00;43.91;100962.50;5092530;28;20516;-38
2023/09/27 06:14:54;;;;;;;11.15;7.78;;;;;;;23.73;42.93;100960.91;5080365;28;20036;-38
2023/09/27 06:17:19;;;;;;;12.40;8.23;;;;;;;23.75;42.18;100966.97;5080049;28;20153;-38
2023/09/27 06:19:45;;;;;;;9.65;7.68;;;;;;;23.97;41.70;100964.53;5078033;28;20048;-37
2023/09/27 06:22:15;;;;;;;15.95;8.10;;;;;;;24.99;40.92;100983.81;5074062;28;20120;-37
2023/09/27 06:24:41;;;;;;;13.85;7.82;;;;;;;25.97;38.96;100973.63;5078975;28;20139;-37
2023/09/27 06:27:07;;;;;;;13.23;7.95;;;;;;;26.83;38.04;100975.66;5078567;28;20123;-36
2023/09/27 06:29:33;;;;;;;11.20;7.82;;;;;;;27.38;36.94;100955.94;5078923;28;20040;-40
2023/09/27 06:31:59;;;;;;;11.48;8.45;;;;;;;27.98;35.83;100965.06;5068229;28;20532;-39
2023/09/27 06:34:24;;;;;;;11.25;8.77;;;;;;;27.65;35.01;100963.47;5077837;28;20043;-39
2023/09/27 06:36:52;;;;;;;14.27;8.98;;;;;;;27.22;35.22;100958.19;5079819;28;20078;-37
2023/09/27 06:39:23;;;;;;;11.95;7.93;;;;;;;27.17;35.27;100944.38;5080535;28;20035;-38
2023/09/27 06:41:49;;;;;;;13.07;8.00;;;;;;;27.32;35.02;100961.81;5056699;28;20071;-37
2023/09/27 06:44:15;;;;;;;10.75;7.90;;;;;;;27.25;34.38;100960.63;5080786;28;20043;-37
2023/09/27 06:46:41;;;;;;;9.05;7.85;;;;;;;27.48;34.24;100956.03;5076789;28;20044;-37
2023/09/27 06:49:07;;;;;;;11.95;8.35;;;;;;;27.91;33.84;100935.34;5077765;28;20036;-38
2023/09/27 06:51:33;;;;;;;11.27;8.70;;;;;;;28.50;33.08;100956.88;5071609;28;20097;-37
2023/09/27 06:53:59;;;;;;;11.48;8.93;;;;;;;28.96;32.62;100950.91;5069549;28;20040;-38
2023/09/27 06:56:25;;;;;;;14.38;8.82;;;;;;;29.12;32.26;100955.72;5069036;28;20094;-37
2023/09/27 06:58:52;;;;;;;13.70;10.18;;;;;;;29.21;31.39;100965.56;5079335;28;20047;-37
2023/09/27 07:01:18;;;;;;;13.07;9.15;;;;;;;29.16;31.33;100940.19;5067290;28;20123;-38
2023/09/27 07:03:45;;;;;;;14.23;8.75;;;;;;;29.64;31.11;100951.75;5080041;28;20563;-37
2023/09/27 07:06:11;;;;;;;12.30;9.55;;;;;;;30.51;29.93;100930.84;5080626;28;20081;-38
2023/09/27 07:08:37;;;;;;;16.08;8.50;;;;;;;30.76;29.76;100964.19;5077820;28;20088;-37
2023/09/27 07:11:05;;;;;;;13.30;8.73;;;;;;;30.29;30.24;100966.09;5070763;28;20082;-37
2023/09/27 07:13:31;;;;;;;11.73;8.05;;;;;;;30.03;30.94;100962.41;5076510;28;20040;-39
2023/09/27 07:15:58;;;;;;;16.35;8.30;;;;;;;29.86;30.82;100963.97;5080185;28;20032;-37
2023/09/27 07:18:24;;;;;;;15.50;8.20;;;;;;;29.89;30.55;100960.97;5079664;28;20085;-38
2023/09/27 07:20:50;;;;;;;13.25;9.10;;;;;;;30.26;29.98;100966.38;5077165;28;20052;-38
2023/09/27 07:23:17;;;;;;;11.25;7.55;;;;;;;30.13;30.00;100947.97;5073724;28;20036;-38
2023/09/27 07:25:44;;;;;;;11.50;8.23;;;;;;;30.20;30.51;100969.69;5076841;28;20047;-37
2023/09/27 07:28:11;;;;;;;10.45;7.72;;;;;;;30.59;29.66;100960.47;5074509;28;20048;-37
2023/09/27 07:30:37;;;;;;;12.13;7.18;;;;;;;31.29;28.48;100976.81;5078533;28;20131;-38
2023/09/27 07:33:10;;;;;;;7.00;5.40;;;;;;;31.55;27.50;100966.94;5076310;28;20595;-38
2023/09/27 07:35:41;;;;;;;15.80;6.50;;;;;;;31.12;28.10;100971.28;5076824;28;20057;-37
2023/09/27 07:38:09;;;;;;;8.85;5.70;;;;;;;31.38;27.20;100965.97;5062423;28;20096;-37
2023/09/27 07:40:35;;;;;;;8.82;5.57;;;;;;;31.83;26.83;100979.25;5077796;28;20264;-39
2023/09/27 07:43:01;;;;;;;9.82;5.90;;;;;;;32.14;26.46;100984.19;5074774;28;20086;-38
2023/09/27 07:45:31;;;;;;;10.85;6.40;;;;;;;32.07;26.35;100975.03;5075841;28;20152;-38
2023/09/27 07:47:57;;;;;;;10.93;6.43;;;;;;;31.91;26.94;100965.03;5057783;28;20068;-37
2023/09/27 07:50:27;;;;;;;14.23;7.25;;;;;;;32.16;26.75;100972.25;5074991;28;20435;-37
2023/09/27 07:52:54;;;;;;;9.02;6.30;;;;;;;32.54;26.51;100979.00;5071924;28;20066;-36
2023/09/27 07:55:21;;;;;;;12.75;6.47;;;;;;;32.54;26.15;100970.06;5070630;28;20039;-38
2023/09/27 07:57:49;;;;;;;7.80;4.70;;;;;;;32.46;25.80;100970.03;5063766;28;20044;-39
2023/09/27 08:00:15;;;;;;;8.10;5.18;;;;;;;32.13;25.83;100967.22;5080076;28;20460;-38
2023/09/27 08:02:43;;;;;;;9.98;5.05;;;;;;;31.74;26.09;100955.16;5068096;28;20059;-38
2023/09/27 08:05:14;;;;;;;10.95;5.43;;;;;;;31.41;26.35;100976.41;5079768;28;20043;-38
2023/09/27 08:07:40;;;;;;;8.35;5.50;;;;;;;31.70;26.04;100980.69;5075274;28;20083;-38
2023/09/27 08:10:07;;;;;;;8.93;4.95;;;;;;;32.30;25.77;100973.50;5054855;28;20051;-38
2023/09/27 08:12:34;;;;;;;8.50;5.82;;;;;;;32.98;25.11;100968.84;5069040;28;20064;-39
2023/09/27 08:15:04;;;;;;;9.48;6.18;;;;;;;33.56;24.78;100979.53;5079539;28;20043;-38
2023/09/27 08:17:32;;;;;;;10.57;5.13;;;;;;;34.02;24.13;100971.72;5077799;28;20126;-38
2023/09/27 08:20:05;;;;;;;9.93;5.50;;;;;;;33.77;23.96;100948.50;5057306;28;20103;-38
2023/09/27 08:22:34;;;;;;;11.75;6.15;;;;;;;33.81;24.01;100961.47;5071564;28;20071;-38
2023/09/27 08:25:01;;;;;;;11.98;5.57;;;;;;;34.27;23.45;100962.56;5079222;28;20040;-37
2023/09/27 08:27:29;;;;;;;7.80;4.25;;;;;;;34.23;23.33;100960.38;5071347;28;20124;-38
2023/09/27 08:29:55;;;;;;;9.00;4.38;;;;;;;34.78;22.87;100960.28;5079178;28;20122;-38
2023/09/27 08:32:21;;;;;;;8.93;4.47;;;;;;;35.66;22.22;100955.19;5056492;28;20036;-36
2023/09/27 08:34:48;;;;;;;10.00;4.90;;;;;;;35.62;21.94;100954.75;5078031;28;20040;-38
2023/09/27 08:37:14;;;;;;;8.40;5.13;;;;;;;35.05;22.31;100948.97;5078234;28;20047;-37
2023/09/27 08:39:41;;;;;;;11.80;5.18;;;;;;;34.33;22.85;100917.81;5058583;28;20436;-38
2023/09/27 08:42:07;;;;;;;7.40;5.00;;;;;;;35.02;22.81;100940.34;5075975;28;20072;-37
2023/09/27 08:44:34;;;;;;;12.45;5.47;;;;;;;36.21;21.87;100944.00;5075929;28;20326;-37
2023/09/27 08:47:00;;;;;;;8.47;5.30;;;;;;;36.60;20.90;100942.78;5082029;28;20122;-38
2023/09/27 08:49:26;;;;;;;13.60;6.00;;;;;;;36.95;20.61;100946.53;5080966;28;20039;-37
2023/09/27 08:51:52;;;;;;;10.77;6.68;;;;;;;36.99;20.70;100942.41;5078395;28;20036;-38
2023/09/27 08:54:21;;;;;;;8.05;5.72;;;;;;;37.28;20.61;100939.56;5077321;28;20041;-37
2023/09/27 08:56:51;;;;;;;7.47;5.10;;;;;;;37.55;19.88;100951.50;5083213;28;20161;-38
2023/09/27 08:59:18;;;;;;;9.18;5.47;;;;;;;37.45;20.40;100942.81;5074022;28;20185;-38
2023/09/27 09:01:45;;;;;;;13.37;5.93;;;;;;;37.59;20.23;100921.03;5074744;28;20369;-37
2023/09/27 09:04:12;;;;;;;9.27;6.22;;;;;;;38.14;19.73;100938.31;5075367;28;20044;-38
2023/09/27 09:06:41;;;;;;;7.72;6.10;;;;;;;38.06;19.82;100933.88;5080092;28;20036;-38
2023/09/27 09:09:11;;;;;;;10.63;5.60;;;;;;;38.40;19.44;100940.31;5081363;28;20527;-38
2023/09/27 09:11:54;;;;;;;11.52;4.90;;;;;;;36.86;20.35;100937.66;5066797;28;20041;-37
2023/09/27 09:14:49;;;;;;;8.80;5.50;;;;;;;36.90;20.57;100939.78;5076203;28;20048;-45
2023/09/27 09:17:19;;;;;;;7.88;4.93;;;;;;;37.57;20.18;100947.56;5074142;28;20574;-39
2023/09/27 09:20:27;;;;;;;10.82;5.28;;;;;;;36.95;20.58;100933.81;5082026;28;20036;-38
2023/09/27 09:22:57;;;;;;;11.07;5.40;;;;;;;36.18;21.53;100933.50;5071778;28;20050;-38
2023/09/27 09:25:27;;;;;;;10.02;5.82;;;;;;;35.74;21.98;100927.25;5079204;28;20159;-38
2023/09/27 09:28:02;;;;;;;9.73;5.38;;;;;;;33.92;23.47;100922.47;5049542;28;20822;-38
2023/09/27 09:30:39;;;;;;;10.38;5.40;;;;;;;33.72;23.73;100916.63;5081383;28;20044;-38
2023/09/27 09:33:11;;;;;;;8.95;5.15;;;;;;;33.94;24.04;100902.41;5055484;28;20105;-39
2023/09/27 09:35:37;;;;;;;9.13;4.88;;;;;;;34.38;23.81;100913.56;5079253;28;20041;-38
2023/09/27 09:38:03;;;;;;;5.80;4.30;;;;;;;34.78;23.63;100919.75;5081078;28;20161;-38
2023/09/27 09:40:31;;;;;;;8.20;4.90;;;;;;;35.19;22.84;100921.16;5063214;28;20105;-38
2023/09/27 09:42:59;;;;;;;7.32;4.53;;;;;;;35.23;23.13;100905.38;5071236;28;20070;-38
2023/09/27 09:45:27;;;;;;;10.38;4.97;;;;;;;35.42;22.92;100910.31;5080283;28;20046;-37
2023/09/27 09:47:53;;;;;;;8.38;4.60;;;;;;;35.32;22.40;100892.66;5077545;28;20041;-38
2023/09/27 09:50:19;;;;;;;8.80;4.47;;;;;;;35.76;22.03;100912.50;5078924;28;20573;-36
2023/09/27 09:52:57;;;;;;;7.20;4.22;;;;;;;36.41;21.65;100909.84;5080949;28;20136;-38
2023/09/27 09:55:25;;;;;;;5.32;4.50;;;;;;;37.10;21.12;100884.94;5068648;28;20070;-37
2023/09/27 09:57:53;;;;;;;;;;;;;;;38.13;20.23;100904.88;5071356;28;20049;-37
2023/09/27 10:00:25;;;;;;;15.73;4.15;;;;;;;38.64;19.71;100904.44;5077104;28;20390;-40
2023/09/27 10:02:59;;;;;;;6.80;2.90;;;;;;;38.58;19.12;100920.75;5058064;28;20048;-39
2023/09/27 10:05:25;;;;;;;5.95;3.35;;;;;;;38.96;19.02;100911.84;5081277;28;20739;-36
2023/09/27 10:07:51;;;;;;;8.38;3.42;;;;;;;39.32;18.94;100905.13;5078397;28;20061;-37
2023/09/27 10:10:18;;;;;;;6.63;3.20;;;;;;;39.06;18.45;100896.97;5078224;28;20041;-37
2023/09/27 10:12:46;;;;;;;12.40;3.58;;;;;;;38.51;18.90;100896.25;5072075;28;20043;-37
2023/09/27 10:15:17;;;;;;;5.07;3.22;;;;;;;38.56;19.10;100894.59;5079691;28;20055;-37
2023/09/27 10:17:43;;;;;;;3.83;3.10;;;;;;;39.24;18.24;100859.09;5060292;28;20082;-36
2023/09/27 10:20:28;;;;;;;9.57;3.70;;;;;;;39.47;18.36;100859.50;5077927;28;20051;-38
2023/09/27 10:23:08;;;;;;;7.18;3.58;;;;;;;39.81;18.34;100896.53;5059831;28;20072;-36
2023/09/27 10:25:35;;;;;;;3.88;3.30;;;;;;;40.75;17.15;100887.72;5061268;28;20106;-37
2023/09/27 10:28:15;;;;;;;4.43;3.07;;;;;;;41.30;17.21;100892.31;5068508;28;20047;-38
2023/09/27 10:30:40;;;;;;;13.70;4.05;;;;;;;41.70;16.54;100894.69;5078311;28;20134;-38
2023/09/27 10:33:15;;;;;;;6.05;3.45;;;;;;;41.82;16.31;100895.63;5075092;28;20568;-37
2023/09/27 10:36:03;;;;;;;6.10;3.65;;;;;;;40.82;16.94;100881.19;5077900;28;20136;-38
2023/09/27 10:38:52;;;;;;;5.90;3.72;;;;;;;40.75;17.40;100879.53;5072091;28;20124;-39
2023/09/27 10:41:38;;;;;;;9.80;4.25;;;;;;;41.42;17.34;100881.50;5068955;28;20048;-37
2023/09/27 10:44:04;;;;;;;5.28;3.67;;;;;;;42.10;16.67;100884.13;5071510;28;20032;-39
2023/09/27 10:46:43;;;;;;;9.03;3.60;;;;;;;42.33;16.23;100861.56;5078217;28;20094;-38
2023/09/27 10:49:09;;;;;;;6.95;3.28;;;;;;;42.16;15.98;100873.13;5079310;28;20032;-37
2023/09/27 10:51:35;;;;;;;5.15;3.00;;;;;;;41.13;16.62;100852.19;5077445;28;20067;-38
2023/09/27 10:54:08;;;;;;;5.78;2.80;;;;;;;40.15;17.58;100862.63;5050233;28;20028;-37
2023/09/27 10:56:35;;;;;;;5.57;3.00;;;;;;;40.32;17.04;100858.38;5075950;28;20504;-38
2023/09/27 10:59:02;;;;;;;6.82;3.35;;;;;;;41.28;16.78;100869.06;5075891;28;20526;-37
2023/09/27 11:01:28;;;;;;;7.80;3.38;;;;;;;41.77;16.49;100857.22;5079837;28;20074;-39
2023/09/27 11:04:02;;;;;;;3.65;2.90;;;;;;;40.10;17.64;100860.56;5074680;28;20086;-38
2023/09/27 11:06:28;;;;;;;8.35;3.22;;;;;;;39.26;18.55;100837.94;5077332;28;20135;-38
2023/09/27 11:09:05;;;;;;;7.43;3.70;;;;;;;40.46;17.55;100854.53;5062737;28;20412;-38
2023/09/27 11:11:31;;;;;;;4.82;3.35;;;;;;;41.33;17.17;100850.94;5079461;28;20040;-38
2023/09/27 11:13:57;;;;;;;5.85;3.20;;;;;;;41.13;17.31;100825.72;5075248;28;20115;-38
2023/09/27 11:16:24;;;;;;;6.30;3.88;;;;;;;41.83;16.98;100832.53;5075981;28;20123;-38
2023/09/27 11:18:51;;;;;;;2.95;2.65;;;;;;;40.98;16.16;100847.84;5069449;28;20037;-38